createdAt,value
2019-06-20T00:00:13.013Z,62.02
2019-06-20T00:02:42.503Z,62.02
2019-06-20T00:05:12.158Z,62.34
2019-06-20T00:07:41.579Z,62.51
2019-06-20T00:10:11.049Z,61.99
2019-06-20T00:12:40.486Z,62.37
2019-06-20T00:15:09.959Z,62.70
2019-06-20T00:17:39.367Z,62.98
2019-06-20T00:20:08.915Z,63.22
2019-06-20T00:22:38.449Z,63.51
2019-06-20T00:25:08.073Z,63.28
2019-06-20T00:27:37.506Z,63.32
2019-06-20T00:30:07.336Z,63.50
2019-06-20T00:32:36.753Z,63.55
2019-06-20T00:35:07.391Z,63.87
2019-06-20T00:37:36.818Z,63.41
2019-06-20T00:40:07.982Z,63.66
2019-06-20T00:42:37.399Z,63.07
2019-06-20T00:45:07.435Z,63.48
2019-06-20T00:47:36.990Z,63.28
2019-06-20T00:50:06.718Z,63.53
2019-06-20T00:52:36.123Z,63.58
2019-06-20T00:55:06.971Z,64.05
2019-06-20T00:57:36.377Z,64.29
2019-06-20T01:00:08.093Z,64.42
2019-06-20T01:02:37.515Z,64.54
2019-06-20T01:05:07.979Z,64.83
2019-06-20T01:07:37.395Z,64.63
2019-06-20T01:10:08.225Z,64.84
2019-06-20T01:12:37.852Z,65.48
2019-06-20T01:15:08.272Z,65.52
2019-06-20T01:17:37.701Z,65.73
2019-06-20T01:20:08.150Z,66.01
2019-06-20T01:22:37.801Z,65.80
2019-06-20T01:25:09.353Z,66.10
2019-06-20T01:27:38.847Z,65.79
2019-06-20T01:30:11.389Z,66.00
2019-06-20T01:32:40.800Z,66.18
2019-06-20T01:35:10.866Z,66.15
2019-06-20T01:37:40.283Z,66.37
2019-06-20T01:40:10.116Z,66.82
2019-06-20T01:42:39.522Z,67.21
2019-06-20T01:45:09.688Z,67.52
2019-06-20T01:47:39.099Z,68.17
2019-06-20T01:50:08.648Z,68.30
2019-06-20T01:52:38.094Z,68.55
2019-06-20T01:55:07.762Z,68.77
2019-06-20T01:57:37.174Z,68.84
2019-06-20T02:00:09.073Z,69.42
2019-06-20T02:02:38.460Z,69.41
2019-06-20T02:05:09.013Z,69.43
2019-06-20T02:07:38.409Z,69.39
2019-06-20T02:10:08.255Z,69.69
2019-06-20T02:12:37.648Z,69.95
2019-06-20T02:15:07.219Z,70.12
2019-06-20T02:17:36.603Z,70.19
2019-06-20T02:20:07.113Z,70.49
2019-06-20T02:22:36.519Z,70.78
2019-06-20T02:25:07.150Z,71.15
2019-06-20T02:27:36.559Z,71.51
2019-06-20T02:30:06.732Z,71.60
2019-06-20T02:32:36.117Z,71.63
2019-06-20T02:35:06.947Z,71.74
2019-06-20T02:37:36.363Z,71.94
2019-06-20T02:40:09.043Z,72.27
2019-06-20T02:42:38.635Z,72.50
2019-06-20T02:45:08.501Z,73.01
2019-06-20T02:47:37.907Z,72.93
2019-06-20T02:50:07.556Z,73.21
2019-06-20T02:52:37.026Z,73.46
2019-06-20T02:55:06.677Z,73.57
2019-06-20T02:57:36.069Z,73.22
2019-06-20T03:00:09.547Z,73.13
2019-06-20T03:02:38.951Z,73.01
2019-06-20T03:05:08.906Z,73.26
2019-06-20T03:07:38.324Z,73.21
2019-06-20T03:10:08.159Z,73.16
2019-06-20T03:12:37.555Z,73.14
2019-06-20T03:15:07.141Z,73.32
2019-06-20T03:17:36.546Z,73.32
2019-06-20T03:20:06.503Z,73.09
2019-06-20T03:22:38.628Z,73.50
2019-06-20T03:25:08.178Z,73.71
2019-06-20T03:27:37.583Z,74.09
2019-06-20T03:30:07.643Z,74.43
2019-06-20T03:32:37.046Z,74.62
2019-06-20T03:35:06.708Z,74.70
2019-06-20T03:37:36.585Z,74.65
2019-06-20T03:40:06.330Z,74.63
2019-06-20T03:42:35.788Z,74.56
2019-06-20T03:45:06.624Z,74.46
2019-06-20T03:47:36.081Z,74.27
2019-06-20T03:50:06.991Z,74.42
2019-06-20T03:52:36.432Z,74.48
2019-06-20T03:55:06.397Z,74.27
2019-06-20T03:57:35.788Z,74.16
2019-06-20T04:00:07.527Z,74.01
2019-06-20T04:02:36.927Z,73.81
2019-06-20T04:05:07.381Z,73.23
2019-06-20T04:07:36.774Z,73.30
2019-06-20T04:10:07.034Z,73.39
2019-06-20T04:12:36.428Z,73.25
2019-06-20T04:15:18.479Z,72.74
2019-06-20T04:17:37.952Z,72.64
2019-06-20T04:20:07.614Z,72.17
2019-06-20T04:22:37.078Z,71.78
2019-06-20T04:25:07.378Z,71.41
2019-06-20T04:27:36.855Z,70.44
2019-06-20T04:30:08.521Z,69.92
2019-06-20T04:32:37.963Z,70.46
2019-06-20T04:35:08.020Z,70.46
2019-06-20T04:37:37.411Z,70.24
2019-06-20T04:40:07.675Z,69.54
2019-06-20T04:42:37.090Z,69.31
2019-06-20T04:45:09.394Z,68.60
2019-06-20T04:47:38.791Z,68.50
2019-06-20T04:50:08.352Z,68.41
2019-06-20T04:52:37.763Z,67.69
2019-06-20T04:55:07.253Z,67.09
2019-06-20T04:57:36.760Z,67.21
2019-06-20T05:00:07.612Z,67.64
2019-06-20T05:02:37.034Z,67.14
2019-06-20T05:05:07.104Z,66.90
2019-06-20T05:07:36.502Z,67.53
2019-06-20T05:10:07.163Z,67.86
2019-06-20T05:12:36.568Z,67.74
2019-06-20T05:15:07.218Z,67.76
2019-06-20T05:17:36.677Z,68.24
2019-06-20T05:20:06.912Z,68.19
2019-06-20T05:22:36.314Z,68.34
2019-06-20T05:25:07.061Z,68.26
2019-06-20T05:27:36.467Z,68.49
2019-06-20T05:30:08.800Z,68.26
2019-06-20T05:32:38.201Z,67.82
2019-06-20T05:35:08.253Z,67.37
2019-06-20T05:37:37.644Z,67.38
2019-06-20T05:40:08.383Z,67.57
2019-06-20T05:42:37.778Z,67.64
2019-06-20T05:45:08.230Z,67.14
2019-06-20T05:47:37.630Z,67.71
2019-06-20T05:50:09.840Z,66.71
2019-06-20T05:52:39.275Z,66.89
2019-06-20T05:55:09.527Z,66.61
2019-06-20T05:57:38.930Z,66.87
2019-06-20T06:00:09.236Z,66.41
2019-06-20T06:02:38.704Z,66.36
2019-06-20T06:05:08.661Z,66.87
2019-06-20T06:07:38.066Z,66.58
2019-06-20T06:10:08.318Z,66.82
2019-06-20T06:12:37.719Z,66.56
2019-06-20T06:15:09.970Z,66.58
2019-06-20T06:17:39.455Z,66.35
2019-06-20T06:20:09.504Z,66.68
2019-06-20T06:22:38.923Z,66.26
2019-06-20T06:25:08.685Z,66.85
2019-06-20T06:27:38.455Z,66.48
2019-06-20T06:30:09.400Z,66.31
2019-06-20T06:32:40.480Z,65.85
2019-06-20T06:35:11.030Z,65.75
2019-06-20T06:37:41.096Z,65.81
2019-06-20T06:40:12.695Z,65.46
2019-06-20T06:42:42.092Z,65.27
2019-06-20T06:45:12.644Z,65.81
2019-06-20T06:47:42.097Z,65.51
2019-06-20T06:50:11.932Z,65.45
2019-06-20T06:52:41.415Z,64.54
2019-06-20T06:55:10.830Z,64.38
2019-06-20T06:57:40.229Z,64.00
2019-06-20T07:00:11.992Z,63.60
2019-06-20T07:02:41.385Z,62.98
2019-06-20T07:05:11.044Z,62.09
2019-06-20T07:07:40.521Z,62.57
2019-06-20T07:10:10.917Z,61.90
2019-06-20T07:12:40.409Z,61.72
2019-06-20T07:15:10.475Z,60.86
2019-06-20T07:17:39.935Z,59.95
2019-06-20T07:20:09.982Z,60.16
2019-06-20T07:22:39.477Z,60.76
2019-06-20T07:25:09.734Z,60.66
2019-06-20T07:27:39.581Z,60.66
2019-06-20T07:30:11.116Z,60.46
2019-06-20T07:32:40.527Z,59.15
2019-06-20T07:35:10.367Z,59.25
2019-06-20T07:37:39.785Z,58.53
2019-06-20T07:40:11.550Z,57.69
2019-06-20T07:42:41.127Z,56.98
2019-06-20T07:45:11.381Z,56.91
2019-06-20T07:47:40.937Z,55.64
2019-06-20T07:50:12.385Z,56.14
2019-06-20T07:52:41.803Z,55.74
2019-06-20T07:55:11.263Z,55.42
2019-06-20T07:57:40.727Z,55.96
2019-06-20T08:00:13.249Z,55.05
2019-06-20T08:02:42.678Z,54.72
2019-06-20T08:05:12.928Z,54.91
2019-06-20T08:07:42.509Z,53.81
2019-06-20T08:10:13.779Z,52.72
2019-06-20T08:12:43.260Z,53.36
2019-06-20T08:15:15.439Z,54.04
2019-06-20T08:17:44.969Z,54.10
2019-06-20T08:20:15.008Z,54.03
2019-06-20T08:22:44.547Z,53.56
2019-06-20T08:25:14.943Z,53.20
2019-06-20T08:27:50.925Z,52.47
2019-06-20T08:30:26.482Z,52.18
2019-06-20T08:32:59.164Z,51.82
2019-06-20T08:35:29.655Z,51.17
2019-06-20T08:38:01.256Z,51.30
2019-06-20T08:40:33.147Z,51.77
2019-06-20T08:43:03.997Z,50.97
2019-06-20T08:45:34.473Z,50.44
2019-06-20T08:48:04.788Z,48.97
2019-06-20T08:50:34.803Z,48.66
2019-06-20T08:53:05.835Z,49.62
2019-06-20T08:55:36.088Z,50.30
2019-06-20T08:58:05.831Z,49.58
2019-06-20T09:00:37.369Z,48.35
2019-06-20T09:03:07.320Z,48.27
2019-06-20T09:05:36.964Z,48.65
2019-06-20T09:08:27.191Z,45.88
2019-06-20T09:10:57.465Z,44.55
2019-06-20T09:13:26.998Z,43.81
2019-06-20T09:15:56.782Z,43.98
2019-06-20T09:18:26.295Z,43.68
2019-06-20T09:20:55.974Z,44.52
2019-06-20T09:23:25.581Z,45.79
2019-06-20T09:25:55.964Z,46.44
2019-06-20T09:28:25.430Z,45.68
2019-06-20T09:30:55.205Z,46.37
2019-06-20T09:33:24.665Z,46.48
2019-06-20T09:35:55.498Z,46.58
2019-06-20T09:38:25.078Z,45.95
2019-06-20T09:40:54.872Z,47.37
2019-06-20T09:43:27.797Z,46.24
2019-06-20T09:45:56.113Z,47.53
2019-06-20T09:48:25.793Z,45.96
2019-06-20T09:50:56.920Z,42.43
2019-06-20T09:53:26.397Z,39.05
2019-06-20T09:55:55.789Z,39.07
2019-06-20T09:58:25.213Z,41.13
2019-06-20T10:00:55.130Z,41.39
2019-06-20T10:03:24.704Z,42.16
2019-06-20T10:05:54.780Z,44.51
2019-06-20T10:08:24.292Z,46.22
2019-06-20T10:10:54.148Z,46.92
2019-06-20T10:13:23.770Z,44.94
2019-06-20T10:15:53.522Z,40.72
2019-06-20T10:18:22.974Z,37.78
2019-06-20T10:20:53.071Z,34.65
2019-06-20T10:23:22.573Z,32.65
2019-06-20T10:25:52.028Z,34.56
2019-06-20T10:28:21.454Z,34.45
2019-06-20T10:30:51.149Z,34.86
2019-06-20T10:33:20.644Z,33.88
2019-06-20T10:35:50.387Z,35.52
2019-06-20T10:38:19.918Z,34.49
2019-06-20T10:40:49.881Z,30.76
2019-06-20T10:43:21.951Z,28.68
2019-06-20T10:45:52.383Z,28.07
2019-06-20T10:48:22.086Z,29.04
2019-06-20T10:50:52.030Z,30.10
2019-06-20T10:53:21.622Z,32.73
2019-06-20T10:55:51.213Z,33.02
2019-06-20T10:58:20.724Z,29.45
2019-06-20T11:00:50.440Z,25.47
2019-06-20T11:03:19.933Z,23.73
2019-06-20T11:05:49.860Z,22.91
2019-06-20T11:08:19.311Z,21.47
2019-06-20T11:10:49.293Z,20.63
2019-06-20T11:13:18.831Z,19.94
2019-06-20T11:15:48.352Z,19.55
2019-06-20T11:18:17.842Z,17.81
2019-06-20T11:20:47.233Z,17.20
2019-06-20T11:23:16.651Z,16.70
2019-06-20T11:25:46.608Z,16.11
2019-06-20T11:28:16.514Z,17.54
2019-06-20T11:30:55.980Z,17.96
2019-06-20T11:33:17.059Z,18.93
2019-06-20T11:35:47.885Z,18.63
2019-06-20T11:38:17.480Z,19.95
2019-06-20T11:40:48.117Z,20.43
2019-06-20T11:43:17.586Z,20.68
2019-06-20T11:45:47.269Z,21.31
2019-06-20T11:48:16.778Z,22.58
2019-06-20T11:50:46.567Z,23.43
2019-06-20T11:53:16.067Z,23.56
2019-06-20T11:55:45.551Z,22.69
2019-06-20T11:58:14.997Z,22.90
2019-06-20T12:00:44.459Z,22.79
2019-06-20T12:03:13.893Z,21.94
2019-06-20T12:05:43.330Z,22.04
2019-06-20T12:08:12.794Z,22.61
2019-06-20T12:10:43.238Z,22.26
2019-06-20T12:13:12.666Z,22.07
2019-06-20T12:15:42.825Z,22.84
2019-06-20T12:18:12.309Z,23.00
2019-06-20T12:20:42.856Z,24.67
2019-06-20T12:23:12.387Z,25.71
2019-06-20T12:25:42.689Z,25.55
2019-06-20T12:28:12.167Z,25.79
2019-06-20T12:30:41.674Z,26.34
2019-06-20T12:33:11.089Z,27.01
2019-06-20T12:35:41.359Z,27.87
2019-06-20T12:38:15.036Z,28.84
2019-06-20T12:40:44.036Z,30.20
2019-06-20T12:43:13.543Z,31.01
2019-06-20T12:45:42.950Z,31.65
2019-06-20T12:48:12.440Z,31.79
2019-06-20T12:50:42.966Z,32.23
2019-06-20T12:53:12.598Z,32.08
2019-06-20T12:55:42.447Z,31.59
2019-06-20T12:58:12.015Z,30.94
2019-06-20T13:00:43.580Z,30.94
2019-06-20T13:03:13.885Z,30.46
2019-06-20T13:05:43.673Z,30.27
2019-06-20T13:08:14.296Z,30.84
2019-06-20T13:10:44.267Z,30.84
2019-06-20T13:13:14.020Z,31.49
2019-06-20T13:15:44.549Z,32.39
2019-06-20T13:18:14.021Z,32.80
2019-06-20T13:20:44.256Z,32.62
2019-06-20T13:23:13.824Z,32.27
2019-06-20T13:25:44.468Z,33.17
2019-06-20T13:28:14.007Z,32.26
2019-06-20T13:30:47.395Z,31.23
2019-06-20T13:33:14.633Z,31.54
2019-06-20T13:35:45.339Z,31.54
2019-06-20T13:38:15.046Z,31.37
2019-06-20T13:40:45.365Z,32.43
2019-06-20T13:43:15.075Z,31.85
2019-06-20T13:45:44.845Z,32.13
2019-06-20T13:48:14.354Z,31.54
2019-06-20T13:50:43.750Z,32.24
2019-06-20T13:53:13.274Z,33.37
2019-06-20T13:55:44.031Z,34.54
2019-06-20T13:58:13.600Z,35.10
2019-06-20T14:00:45.393Z,36.09
2019-06-20T14:03:14.182Z,35.98
2019-06-20T14:05:45.334Z,35.87
2019-06-20T14:08:14.889Z,35.71
2019-06-20T14:10:45.997Z,34.95
2019-06-20T14:13:19.150Z,34.89
2019-06-20T14:15:46.579Z,35.52
2019-06-20T14:18:15.972Z,36.31
2019-06-20T14:20:46.585Z,35.98
2019-06-20T14:23:16.176Z,36.10
2019-06-20T14:25:46.293Z,36.52
2019-06-20T14:28:16.019Z,37.28
2019-06-20T14:30:46.527Z,37.45
2019-06-20T14:33:16.494Z,37.60
2019-06-20T14:35:47.390Z,38.20
2019-06-20T14:38:17.007Z,38.67
2019-06-20T14:40:48.263Z,38.88
2019-06-20T14:43:17.896Z,40.24
2019-06-20T14:45:48.611Z,40.72
2019-06-20T14:48:18.107Z,41.41
2019-06-20T14:50:47.855Z,41.30
2019-06-20T14:53:18.604Z,40.68
2019-06-20T14:55:48.091Z,40.35
2019-06-20T14:58:17.517Z,40.18
2019-06-20T15:00:48.074Z,39.82
2019-06-20T15:03:17.614Z,39.79
2019-06-20T15:05:48.209Z,40.24
2019-06-20T15:08:17.723Z,39.87
2019-06-20T15:10:48.478Z,40.18
2019-06-20T15:13:18.251Z,40.29
2019-06-20T15:15:48.343Z,40.45
2019-06-20T15:18:18.914Z,40.35
2019-06-20T15:20:50.184Z,40.48
2019-06-20T15:23:19.411Z,40.71
2019-06-20T15:25:50.285Z,41.37
2019-06-20T15:28:19.831Z,41.25
2019-06-20T15:30:50.721Z,40.73
2019-06-20T15:33:20.253Z,40.78
2019-06-20T15:35:51.217Z,40.34
2019-06-20T15:38:20.778Z,40.32
2019-06-20T15:40:51.452Z,40.37
2019-06-20T15:43:21.144Z,40.89
2019-06-20T15:45:51.992Z,41.63
2019-06-20T15:48:21.534Z,40.34
2019-06-20T15:50:51.049Z,39.79
2019-06-20T15:53:21.329Z,40.17
2019-06-20T15:55:50.836Z,40.52
2019-06-20T15:58:20.232Z,40.78
2019-06-20T16:00:49.744Z,40.51
2019-06-20T16:03:19.154Z,41.46
2019-06-20T16:05:48.642Z,41.95
2019-06-20T16:08:18.037Z,41.92
2019-06-20T16:10:47.465Z,41.74
2019-06-20T16:13:16.848Z,42.63
2019-06-20T16:15:46.270Z,43.42
2019-06-20T16:18:15.678Z,43.62
2019-06-20T16:20:45.121Z,43.83
2019-06-20T16:23:14.513Z,44.35
2019-06-20T16:25:43.948Z,44.33
2019-06-20T16:28:13.345Z,44.20
2019-06-20T16:30:43.264Z,44.47
2019-06-20T16:33:24.606Z,44.85
2019-06-20T16:35:43.844Z,45.18
2019-06-20T16:38:13.252Z,45.68
2019-06-20T16:40:48.293Z,45.67
2019-06-20T16:43:17.833Z,46.26
2019-06-20T16:45:47.243Z,46.68
2019-06-20T16:48:16.633Z,47.48
2019-06-20T16:50:46.052Z,47.99
2019-06-20T16:53:15.450Z,48.87
2019-06-20T16:55:44.983Z,48.27
2019-06-20T16:58:15.056Z,47.30
2019-06-20T17:00:44.619Z,47.02
2019-06-20T17:03:14.039Z,46.11
2019-06-20T17:05:43.526Z,46.07
2019-06-20T17:08:12.926Z,46.90
2019-06-20T17:10:42.579Z,47.64
2019-06-20T17:13:11.986Z,47.98
2019-06-20T17:15:41.541Z,48.85
2019-06-20T17:18:10.980Z,49.33
2019-06-20T17:20:40.638Z,49.70
2019-06-20T17:23:10.115Z,50.47
2019-06-20T17:25:40.074Z,50.67
2019-06-20T17:28:09.814Z,51.24
2019-06-20T17:30:39.392Z,51.62
2019-06-20T17:33:08.868Z,52.32
2019-06-20T17:35:38.304Z,52.71
2019-06-20T17:38:07.774Z,53.11
2019-06-20T17:40:37.189Z,52.91
2019-06-20T17:43:06.582Z,53.24
2019-06-20T17:45:36.080Z,53.50
2019-06-20T17:48:05.486Z,53.80
2019-06-20T17:50:34.908Z,53.10
2019-06-20T17:53:04.377Z,53.84
2019-06-20T17:55:33.813Z,53.60
2019-06-20T17:58:03.217Z,53.26
2019-06-20T18:00:33.378Z,53.32
2019-06-20T18:03:02.787Z,53.62
2019-06-20T18:05:32.342Z,53.70
2019-06-20T18:08:14.075Z,54.04
2019-06-20T18:10:33.033Z,54.41
2019-06-20T18:13:02.424Z,55.02
2019-06-20T18:15:33.912Z,55.20
2019-06-20T18:18:02.984Z,54.99
2019-06-20T18:20:32.481Z,55.04
2019-06-20T18:23:01.879Z,54.55
2019-06-20T18:25:31.862Z,54.01
2019-06-20T18:28:01.284Z,54.13
2019-06-20T18:30:39.783Z,54.23
2019-06-20T18:33:09.481Z,54.53
2019-06-20T18:35:39.191Z,53.92
2019-06-20T18:38:08.683Z,54.16
2019-06-20T18:40:38.091Z,53.75
2019-06-20T18:43:07.500Z,53.79
2019-06-20T18:45:36.897Z,53.53
2019-06-20T18:48:06.298Z,53.78
2019-06-20T18:50:35.716Z,53.83
2019-06-20T18:53:05.686Z,54.12
2019-06-20T18:55:35.179Z,53.92
2019-06-20T18:58:04.744Z,54.17
2019-06-20T19:00:35.279Z,54.65
2019-06-20T19:03:05.233Z,55.14
2019-06-20T19:05:34.671Z,55.15
2019-06-20T19:08:04.627Z,55.28
2019-06-20T19:10:34.113Z,55.31
2019-06-20T19:13:03.841Z,55.54
2019-06-20T19:15:33.989Z,55.51
2019-06-20T19:18:03.571Z,55.94
2019-06-20T19:20:33.020Z,56.32
2019-06-20T19:23:02.428Z,56.79
2019-06-20T19:25:31.916Z,56.69
2019-06-20T19:28:01.329Z,56.96
2019-06-20T19:30:39.785Z,56.80
2019-06-20T19:33:09.204Z,57.26
2019-06-20T19:35:38.647Z,57.34
2019-06-20T19:38:08.047Z,57.51
2019-06-20T19:40:43.349Z,58.33
2019-06-20T19:43:12.923Z,58.46
2019-06-20T19:45:42.507Z,58.61
2019-06-20T19:48:12.650Z,58.62
2019-06-20T19:50:42.502Z,59.21
2019-06-20T19:53:12.338Z,59.11
2019-06-20T19:55:42.287Z,58.85
2019-06-20T19:58:11.763Z,57.90
2019-06-20T20:00:41.191Z,58.15
2019-06-20T20:03:10.670Z,58.11
2019-06-20T20:05:40.295Z,58.14
2019-06-20T20:08:09.720Z,58.72
2019-06-20T20:10:45.056Z,58.99
2019-06-20T20:13:15.555Z,59.48
2019-06-20T20:15:46.048Z,59.63
2019-06-20T20:18:16.100Z,59.90
2019-06-20T20:20:47.635Z,60.32
2019-06-20T20:23:17.514Z,60.44
2019-06-20T20:25:47.276Z,60.25
2019-06-20T20:28:16.687Z,59.98
2019-06-20T20:30:46.172Z,59.64
2019-06-20T20:33:15.575Z,59.50
2019-06-20T20:35:45.004Z,59.68
2019-06-20T20:38:14.408Z,59.73
2019-06-20T20:40:44.529Z,59.81
2019-06-20T20:43:14.350Z,60.16
2019-06-20T20:45:43.836Z,60.49
2019-06-20T20:48:13.245Z,60.39
2019-06-20T20:50:43.112Z,60.70
2019-06-20T20:53:12.542Z,60.94
2019-06-20T20:55:41.958Z,61.36
2019-06-20T20:58:11.349Z,61.29
2019-06-20T21:00:55.969Z,61.56
2019-06-20T21:03:25.401Z,61.60
2019-06-20T21:05:54.787Z,61.48
2019-06-20T21:08:24.179Z,61.72
2019-06-20T21:10:53.593Z,61.81
2019-06-20T21:13:22.991Z,62.13
2019-06-20T21:15:52.447Z,61.93
2019-06-20T21:18:21.918Z,62.04
2019-06-20T21:20:51.342Z,62.26
2019-06-20T21:23:20.841Z,62.14
2019-06-20T21:25:50.350Z,61.78
2019-06-20T21:28:19.785Z,61.78
2019-06-20T21:30:49.240Z,62.30
2019-06-20T21:33:18.693Z,62.05
2019-06-20T21:35:48.112Z,62.63
2019-06-20T21:38:17.509Z,64.18
2019-06-20T21:40:47.082Z,63.93
2019-06-20T21:43:16.471Z,64.05
2019-06-20T21:45:46.283Z,63.72
2019-06-20T21:48:15.680Z,63.43
2019-06-20T21:50:45.863Z,63.35
2019-06-20T21:53:15.256Z,63.15
2019-06-20T21:55:44.706Z,63.43
2019-06-20T21:58:14.105Z,63.44
2019-06-20T22:00:46.501Z,63.80
2019-06-20T22:03:15.971Z,63.98
2019-06-20T22:05:45.470Z,63.53
2019-06-20T22:08:15.012Z,64.90
2019-06-20T22:10:44.373Z,64.68
2019-06-20T22:13:13.773Z,65.25
2019-06-20T22:15:43.221Z,65.10
2019-06-20T22:18:13.008Z,64.31
2019-06-20T22:20:42.492Z,63.47
2019-06-20T22:23:11.899Z,63.12
2019-06-20T22:25:41.314Z,62.87
2019-06-20T22:28:10.816Z,63.19
2019-06-20T22:30:49.074Z,63.35
2019-06-20T22:33:18.472Z,63.57
2019-06-20T22:35:48.136Z,63.77
2019-06-20T22:38:17.638Z,64.03
2019-06-20T22:40:47.598Z,64.17
2019-06-20T22:43:17.158Z,64.48
2019-06-20T22:45:46.586Z,64.61
2019-06-20T22:48:16.016Z,64.50
2019-06-20T22:50:46.468Z,64.40
2019-06-20T22:53:15.875Z,64.00
2019-06-20T22:55:45.306Z,63.76
2019-06-20T22:58:14.815Z,63.43
2019-06-20T23:00:44.929Z,63.14
2019-06-20T23:03:14.405Z,63.37
2019-06-20T23:05:43.829Z,63.26
2019-06-20T23:08:13.245Z,63.52
2019-06-20T23:10:42.671Z,63.62
2019-06-20T23:13:12.094Z,63.51
2019-06-20T23:15:41.653Z,63.74
2019-06-20T23:18:11.058Z,63.95
2019-06-20T23:20:40.721Z,64.00
2019-06-20T23:23:10.109Z,64.06
2019-06-20T23:25:41.196Z,64.01
2019-06-20T23:28:10.656Z,64.15
2019-06-20T23:30:40.116Z,64.29
2019-06-20T23:33:09.521Z,64.34
2019-06-20T23:35:38.961Z,64.25
2019-06-20T23:38:08.334Z,64.10
2019-06-20T23:40:37.751Z,64.04
2019-06-20T23:43:07.215Z,64.17
2019-06-20T23:45:36.633Z,64.45
2019-06-20T23:48:06.018Z,64.40
2019-06-20T23:50:35.605Z,64.75
2019-06-20T23:53:06.703Z,64.72
2019-06-20T23:55:36.288Z,64.70
2019-06-20T23:58:05.679Z,64.72
